Time;durP1;ratioP1;P1;durP2;ratioP2;P2;SDS_P1;SDS_P2;PMS_P1;PMS_P2;Temp;Humidity;BMP_temperature;BMP_pressure;BME280_temperature;BME280_humidity;BME280_pressure;Samples;Min_cycle;Max_cycle;Signal;HPM_P1;HPM_P2
2023/12/14 00:01:22;;;;;;;8.93;5.45;;;3.90;99.90;;;;;;5074668;28;20113;-17
2023/12/14 00:03:48;;;;;;;8.73;4.57;;;3.90;99.90;;;;;;5074759;28;20070;-17
2023/12/14 00:06:14;;;;;;;11.25;5.50;;;3.80;99.90;;;;;;5076077;28;20049;-17
2023/12/14 00:08:41;;;;;;;10.50;5.50;;;3.80;99.90;;;;;;5074298;28;20127;-17
2023/12/14 00:11:11;;;;;;;12.18;5.78;;;3.80;99.90;;;;;;5074457;28;20056;-17
2023/12/14 00:13:38;;;;;;;10.10;5.97;;;3.80;99.90;;;;;;5057836;28;20040;-17
2023/12/14 00:16:04;;;;;;;8.05;5.32;;;3.80;99.90;;;;;;5075649;28;20092;-17
2023/12/14 00:18:30;;;;;;;13.27;6.53;;;3.80;99.90;;;;;;5075352;28;20065;-17
2023/12/14 00:20:56;;;;;;;11.45;6.40;;;3.80;99.90;;;;;;5041048;28;20056;-17
2023/12/14 00:23:23;;;;;;;9.73;6.20;;;3.80;99.90;;;;;;5073957;28;20139;-17
2023/12/14 00:25:49;;;;;;;15.15;7.10;;;3.80;99.90;;;;;;5075070;28;20079;-17
2023/12/14 00:28:14;;;;;;;10.27;6.00;;;3.70;99.90;;;;;;5075144;28;20057;-17
2023/12/14 00:30:40;;;;;;;8.50;5.68;;;3.80;99.90;;;;;;5074684;28;20041;-17
2023/12/14 00:33:06;;;;;;;9.63;6.55;;;3.70;99.90;;;;;;5074167;28;20044;-17
2023/12/14 00:35:32;;;;;;;11.50;5.45;;;3.80;99.90;;;;;;5074670;28;20052;-17
2023/12/14 00:37:58;;;;;;;10.13;5.47;;;3.70;99.90;;;;;;5040570;28;20047;-17
2023/12/14 00:40:24;;;;;;;8.52;5.10;;;3.70;99.90;;;;;;5074835;28;20056;-17
2023/12/14 00:42:50;;;;;;;8.15;4.70;;;3.70;99.90;;;;;;5073663;28;20083;-17
2023/12/14 00:45:16;;;;;;;10.40;5.78;;;3.70;99.90;;;;;;5075286;28;20110;-17
2023/12/14 00:47:42;;;;;;;10.30;6.22;;;3.70;99.90;;;;;;5073732;28;20052;-17
2023/12/14 00:50:08;;;;;;;11.30;6.10;;;3.60;99.90;;;;;;5073978;28;20131;-17
2023/12/14 00:52:34;;;;;;;9.50;5.88;;;3.70;99.90;;;;;;5023844;28;20482;-17
2023/12/14 00:55:00;;;;;;;9.65;6.05;;;3.60;99.90;;;;;;5074567;28;20083;-17
2023/12/14 00:57:26;;;;;;;10.75;5.55;;;3.60;99.90;;;;;;5074443;28;20041;-17
2023/12/14 00:59:52;;;;;;;9.00;5.10;;;3.70;99.90;;;;;;5056994;28;20091;-17
2023/12/14 01:02:17;;;;;;;8.40;5.18;;;3.60;99.90;;;;;;5074466;28;20105;-17
2023/12/14 01:04:43;;;;;;;9.52;5.35;;;3.60;99.90;;;;;;5074411;28;20429;-17
2023/12/14 01:07:09;;;;;;;8.18;4.75;;;3.60;99.90;;;;;;5074325;28;20529;-17
2023/12/14 01:09:35;;;;;;;9.52;5.30;;;3.60;99.90;;;;;;5073394;28;20142;-17
2023/12/14 01:12:01;;;;;;;7.43;5.15;;;3.60;99.90;;;;;;5074802;28;20041;-17
2023/12/14 01:14:27;;;;;;;11.27;5.43;;;3.60;99.90;;;;;;5073774;28;20178;-17
2023/12/14 01:16:53;;;;;;;10.40;5.97;;;3.70;99.90;;;;;;5056481;28;20436;-17
2023/12/14 01:19:18;;;;;;;12.25;6.95;;;3.60;99.90;;;;;;5073967;28;20059;-17
2023/12/14 01:21:45;;;;;;;10.88;6.40;;;3.70;99.90;;;;;;5073672;28;20076;-17
2023/12/14 01:24:11;;;;;;;13.75;6.80;;;3.70;99.90;;;;;;5039803;28;20160;-17
2023/12/14 01:26:37;;;;;;;11.55;6.47;;;3.70;99.90;;;;;;5039596;28;20052;-17
2023/12/14 01:29:03;;;;;;;9.55;6.60;;;3.70;99.90;;;;;;5072814;28;20041;-17
2023/12/14 01:31:28;;;;;;;11.00;6.50;;;3.70;99.90;;;;;;5073940;28;20368;-17
2023/12/14 01:33:54;;;;;;;13.45;7.10;;;3.70;99.90;;;;;;5056013;28;20049;-17
2023/12/14 01:36:21;;;;;;;16.08;7.93;;;3.70;99.90;;;;;;5073573;28;20570;-17
2023/12/14 01:38:47;;;;;;;14.27;7.22;;;3.70;99.90;;;;;;5056666;28;20076;-17
2023/12/14 01:41:13;;;;;;;16.90;8.32;;;3.70;99.90;;;;;;5074676;28;20374;-17
2023/12/14 01:43:39;;;;;;;12.18;8.20;;;3.70;99.90;;;;;;5056641;28;20127;-17
2023/12/14 01:46:05;;;;;;;12.90;6.97;;;3.70;99.90;;;;;;5072625;28;20513;-17
2023/12/14 01:48:31;;;;;;;14.32;8.18;;;3.70;99.90;;;;;;5072572;28;20390;-17
2023/12/14 01:50:56;;;;;;;20.35;8.93;;;3.70;99.90;;;;;;5073039;28;20044;-17
2023/12/14 01:53:22;;;;;;;24.58;9.43;;;3.70;99.90;;;;;;5073703;28;20490;-17
2023/12/14 01:55:48;;;;;;;16.67;8.65;;;3.70;99.90;;;;;;5073669;28;20044;-17
2023/12/14 01:58:14;;;;;;;16.65;7.80;;;3.70;99.90;;;;;;5073654;28;20479;-17
2023/12/14 02:00:48;;;;;;;17.08;8.00;;;3.70;99.90;;;;;;5072488;28;20111;-17
2023/12/14 02:03:16;;;;;;;12.57;8.07;;;3.70;99.90;;;;;;5056206;28;20060;-17
2023/12/14 02:05:42;;;;;;;14.52;8.70;;;3.70;99.90;;;;;;5073581;28;20544;-17
2023/12/14 02:08:08;;;;;;;15.23;8.45;;;3.70;99.90;;;;;;5072647;28;20052;-17
2023/12/14 02:10:34;;;;;;;12.32;7.15;;;3.70;99.90;;;;;;5073532;28;20045;-18
2023/12/14 02:13:03;;;;;;;13.40;7.57;;;3.70;99.90;;;;;;5073539;28;20071;-17
2023/12/14 02:15:29;;;;;;;12.32;6.75;;;3.70;99.90;;;;;;5055803;28;20494;-17
2023/12/14 02:17:55;;;;;;;14.45;8.07;;;3.70;99.90;;;;;;5055355;28;20048;-17
2023/12/14 02:20:21;;;;;;;16.15;7.50;;;3.70;99.90;;;;;;5073462;28;20487;-17
2023/12/14 02:22:55;;;;;;;15.20;7.65;;;3.70;99.90;;;;;;5039255;28;20479;-17
2023/12/14 02:25:22;;;;;;;18.67;7.43;;;3.70;99.90;;;;;;5073454;28;20044;-17
2023/12/14 02:27:49;;;;;;;13.20;7.10;;;3.70;99.90;;;;;;5073253;28;20088;-17
2023/12/14 02:30:15;;;;;;;14.73;7.53;;;3.70;99.90;;;;;;5056332;28;20049;-17
2023/12/14 02:32:41;;;;;;;14.80;7.55;;;3.70;99.90;;;;;;5073273;28;20131;-18
2023/12/14 02:35:07;;;;;;;12.73;7.00;;;3.70;99.90;;;;;;5072083;28;20118;-17
2023/12/14 02:37:37;;;;;;;18.50;8.38;;;3.70;99.90;;;;;;5072193;28;20557;-17
2023/12/14 02:40:03;;;;;;;13.60;7.47;;;3.70;99.90;;;;;;5055753;28;20052;-17
2023/12/14 02:42:29;;;;;;;13.90;7.80;;;3.70;99.90;;;;;;5073220;28;20044;-17
2023/12/14 02:44:55;;;;;;;14.55;8.23;;;3.70;99.90;;;;;;5072881;28;20478;-17
2023/12/14 02:47:21;;;;;;;16.60;8.20;;;3.70;99.90;;;;;;5071971;28;20395;-17
2023/12/14 02:49:47;;;;;;;12.65;7.60;;;3.70;99.90;;;;;;5073148;28;20048;-17
2023/12/14 02:52:13;;;;;;;17.20;7.90;;;3.70;99.90;;;;;;5073111;28;20390;-17
2023/12/14 02:54:39;;;;;;;25.48;8.38;;;3.70;99.90;;;;;;5073069;28;20059;-17
2023/12/14 02:57:05;;;;;;;18.25;9.65;;;3.70;99.90;;;;;;5059142;28;20548;-17
2023/12/14 02:59:31;;;;;;;20.95;8.73;;;3.80;99.90;;;;;;5059397;28;20050;-17
2023/12/14 03:01:57;;;;;;;16.67;7.72;;;3.70;99.90;;;;;;5076206;28;20495;-17
2023/12/14 03:04:23;;;;;;;22.83;8.77;;;3.70;99.90;;;;;;5076020;28;20044;-17
2023/12/14 03:06:48;;;;;;;18.17;9.20;;;3.80;99.90;;;;;;5076933;28;20047;-17
2023/12/14 03:09:14;;;;;;;21.13;9.27;;;3.70;99.90;;;;;;5075428;28;20478;-17
2023/12/14 03:11:40;;;;;;;19.27;8.85;;;3.70;99.90;;;;;;5076618;28;20137;-17
2023/12/14 03:14:06;;;;;;;19.70;9.18;;;3.60;99.90;;;;;;5075340;28;20483;-17
2023/12/14 03:16:31;;;;;;;19.27;8.10;;;3.60;99.90;;;;;;5076456;28;20041;-17
2023/12/14 03:18:57;;;;;;;16.08;8.07;;;3.60;99.90;;;;;;5058288;28;20066;-17
2023/12/14 03:21:23;;;;;;;23.33;9.05;;;3.60;99.90;;;;;;5058772;28;20048;-17
2023/12/14 03:23:50;;;;;;;24.85;9.07;;;3.70;99.90;;;;;;5077202;28;20150;-17
2023/12/14 03:26:16;;;;;;;16.88;9.40;;;3.70;99.90;;;;;;5076202;28;20083;-18
2023/12/14 03:28:42;;;;;;;20.55;9.43;;;3.70;99.90;;;;;;5075067;28;20095;-18
2023/12/14 03:31:11;;;;;;;18.58;9.27;;;3.60;99.90;;;;;;5075091;28;20055;-17
2023/12/14 03:33:37;;;;;;;15.73;8.55;;;3.60;99.90;;;;;;5077014;28;20356;-17
2023/12/14 03:36:03;;;;;;;16.83;8.90;;;3.60;99.90;;;;;;5076134;28;20066;-17
2023/12/14 03:38:29;;;;;;;15.85;9.43;;;3.70;99.90;;;;;;5075075;28;20134;-17
2023/12/14 03:40:55;;;;;;;17.35;9.60;;;3.60;99.90;;;;;;5074889;28;20494;-17
2023/12/14 03:43:22;;;;;;;23.35;10.13;;;3.70;99.90;;;;;;5076014;28;20474;-17
2023/12/14 03:45:48;;;;;;;22.75;9.73;;;3.60;99.90;;;;;;5075966;28;20044;-17
2023/12/14 03:48:13;;;;;;;27.67;10.32;;;3.70;99.90;;;;;;5074985;28;20044;-17
2023/12/14 03:50:39;;;;;;;22.33;9.77;;;3.70;99.90;;;;;;5074751;28;20045;-17
2023/12/14 03:53:05;;;;;;;20.00;9.30;;;3.60;99.90;;;;;;5074664;28;20044;-17
2023/12/14 03:55:31;;;;;;;20.80;10.07;;;4.00;99.90;;;;;;5057958;28;20036;-17
2023/12/14 03:57:56;;;;;;;17.88;9.93;;;3.70;99.90;;;;;;5058021;28;20051;-17
2023/12/14 04:00:22;;;;;;;18.13;9.82;;;3.70;99.90;;;;;;5075361;28;20052;-18
2023/12/14 04:02:48;;;;;;;23.42;9.55;;;3.70;99.90;;;;;;5058071;28;20049;-18
2023/12/14 04:05:13;;;;;;;22.98;9.68;;;3.70;99.90;;;;;;5075390;28;20043;-17
2023/12/14 04:07:40;;;;;;;17.05;9.48;;;3.70;99.90;;;;;;5074519;28;20155;-17
2023/12/14 04:10:10;;;;;;;19.67;9.95;;;3.70;99.90;;;;;;5057621;28;20045;-17
2023/12/14 04:12:37;;;;;;;16.80;9.85;;;3.60;99.90;;;;;;5075485;28;20048;-17
2023/12/14 04:15:04;;;;;;;24.52;10.30;;;3.60;99.90;;;;;;5057489;28;20513;-17
2023/12/14 04:17:31;;;;;;;17.75;10.57;;;3.60;99.90;;;;;;5073716;28;20063;-17
2023/12/14 04:19:57;;;;;;;19.90;10.18;;;3.70;99.90;;;;;;5075200;28;20071;-17
2023/12/14 04:22:23;;;;;;;21.02;11.65;;;3.70;99.90;;;;;;5057725;28;20474;-17
2023/12/14 04:24:49;;;;;;;19.27;10.35;;;3.60;99.90;;;;;;5073894;28;20055;-17
2023/12/14 04:27:15;;;;;;;28.05;13.25;;;3.60;99.90;;;;;;5075121;28;20131;-17
2023/12/14 04:29:41;;;;;;;22.35;11.30;;;3.60;99.90;;;;;;5057553;28;20163;-17
2023/12/14 04:32:08;;;;;;;20.00;10.13;;;3.60;99.90;;;;;;5075132;28;20470;-17
2023/12/14 04:34:34;;;;;;;19.95;10.13;;;3.60;99.90;;;;;;5075005;28;20040;-17
2023/12/14 04:36:59;;;;;;;20.35;10.52;;;3.60;99.90;;;;;;5073919;28;20062;-17
2023/12/14 04:39:26;;;;;;;19.30;10.55;;;3.60;99.90;;;;;;5040928;28;20045;-17
2023/12/14 04:41:52;;;;;;;19.77;10.80;;;3.60;99.90;;;;;;5073638;28;20051;-17
2023/12/14 04:44:19;;;;;;;21.23;10.77;;;3.60;99.90;;;;;;5073624;28;20473;-17
2023/12/14 04:46:45;;;;;;;21.00;10.70;;;3.60;99.90;;;;;;5073833;28;20109;-17
2023/12/14 04:49:10;;;;;;;23.60;11.13;;;3.60;99.90;;;;;;5074413;28;20037;-18
2023/12/14 04:51:37;;;;;;;19.77;10.90;;;3.60;99.90;;;;;;5057428;28;20050;-18
2023/12/14 04:54:03;;;;;;;20.00;11.32;;;3.60;99.90;;;;;;5074617;28;20123;-18
2023/12/14 04:56:29;;;;;;;18.00;10.88;;;3.60;99.90;;;;;;5073605;28;20060;-18
2023/12/14 04:58:55;;;;;;;19.67;10.57;;;3.60;99.90;;;;;;5074437;28;20047;-17
2023/12/14 05:01:20;;;;;;;20.08;11.30;;;3.60;99.90;;;;;;5056927;28;20158;-17
2023/12/14 05:03:46;;;;;;;24.05;11.52;;;3.60;99.90;;;;;;5073474;28;20052;-18
2023/12/14 05:06:12;;;;;;;23.38;11.40;;;3.60;99.90;;;;;;5073183;28;20059;-18
2023/12/14 05:08:38;;;;;;;25.13;11.98;;;3.60;99.90;;;;;;5073199;28;20044;-17
2023/12/14 05:11:04;;;;;;;29.00;12.48;;;3.60;99.90;;;;;;5073301;28;20044;-17
2023/12/14 05:13:30;;;;;;;25.13;11.30;;;3.60;99.90;;;;;;5073053;28;20406;-17
2023/12/14 05:16:00;;;;;;;25.67;11.15;;;3.60;99.90;;;;;;5057403;28;20047;-18
2023/12/14 05:18:26;;;;;;;22.38;10.95;;;3.60;99.90;;;;;;5055563;28;20060;-17
2023/12/14 05:20:53;;;;;;;22.13;10.90;;;3.60;99.90;;;;;;5074120;28;20057;-17
2023/12/14 05:23:19;;;;;;;21.08;11.10;;;3.70;99.90;;;;;;5074368;28;20123;-17
2023/12/14 05:25:45;;;;;;;23.17;12.05;;;3.60;99.90;;;;;;5056343;28;20565;-17
2023/12/14 05:28:11;;;;;;;26.13;12.13;;;3.60;99.90;;;;;;5073976;28;20123;-17
2023/12/14 05:30:36;;;;;;;24.52;12.15;;;3.60;99.90;;;;;;5074083;28;20045;-18
2023/12/14 05:33:02;;;;;;;23.42;11.23;;;3.60;99.90;;;;;;5073997;28;20127;-18
2023/12/14 05:35:28;;;;;;;22.23;10.73;;;3.60;99.90;;;;;;5073950;28;20048;-18
2023/12/14 05:37:54;;;;;;;22.85;10.68;;;3.60;99.90;;;;;;5072653;28;20041;-18
2023/12/14 05:40:20;;;;;;;24.17;11.88;;;3.60;99.90;;;;;;5072645;28;20044;-17
2023/12/14 05:42:46;;;;;;;22.73;10.02;;;3.60;99.90;;;;;;5072644;28;20055;-17
2023/12/14 05:45:12;;;;;;;21.40;11.63;;;3.60;99.90;;;;;;5073312;28;20084;-17
2023/12/14 05:47:38;;;;;;;27.85;11.73;;;3.60;99.90;;;;;;5072611;28;20082;-17
2023/12/14 05:50:04;;;;;;;21.70;10.93;;;3.60;99.90;;;;;;5056060;28;20087;-17
2023/12/14 05:52:31;;;;;;;33.05;12.02;;;3.60;99.90;;;;;;5073715;28;20044;-17
2023/12/14 05:54:56;;;;;;;20.25;10.63;;;3.60;99.90;;;;;;5072492;28;20049;-17
2023/12/14 05:57:22;;;;;;;24.13;10.95;;;3.60;99.90;;;;;;5073621;28;20509;-17
2023/12/14 05:59:50;;;;;;;24.02;10.55;;;3.80;99.90;;;;;;5072473;28;20052;-17
2023/12/14 06:02:16;;;;;;;19.25;10.30;;;3.60;99.90;;;;;;5055598;28;20044;-17
2023/12/14 06:04:42;;;;;;;27.05;10.95;;;3.60;99.90;;;;;;5072398;28;20048;-17
2023/12/14 06:07:07;;;;;;;19.17;9.57;;;3.60;99.90;;;;;;5073562;28;20046;-17
2023/12/14 06:09:34;;;;;;;25.58;11.15;;;3.60;99.90;;;;;;5074355;28;20050;-17
2023/12/14 06:12:02;;;;;;;19.92;11.20;;;3.60;99.90;;;;;;5056128;28;20055;-17
2023/12/14 06:14:27;;;;;;;25.73;11.40;;;3.60;99.90;;;;;;5055890;28;20106;-17
2023/12/14 06:16:53;;;;;;;23.23;11.52;;;3.60;99.90;;;;;;5055578;28;20044;-17
2023/12/14 06:19:19;;;;;;;21.50;11.48;;;3.60;99.90;;;;;;5073128;28;20057;-17
2023/12/14 06:21:45;;;;;;;24.65;11.88;;;3.60;99.90;;;;;;5038967;28;20067;-17
2023/12/14 06:24:11;;;;;;;23.38;10.70;;;3.60;99.90;;;;;;5072130;28;20131;-17
2023/12/14 06:26:44;;;;;;;19.52;10.80;;;3.60;99.90;;;;;;5073923;28;20048;-17
2023/12/14 06:29:10;;;;;;;23.55;11.93;;;3.60;99.90;;;;;;5073271;28;20080;-17
2023/12/14 06:31:37;;;;;;;22.17;11.18;;;3.60;99.90;;;;;;5076164;28;20055;-17
2023/12/14 06:34:03;;;;;;;28.88;13.68;;;3.60;99.90;;;;;;5077520;28;20045;-17
2023/12/14 06:36:33;;;;;;;22.67;11.63;;;3.50;99.90;;;;;;5077222;28;20392;-17
2023/12/14 06:39:00;;;;;;;24.30;11.98;;;3.60;99.90;;;;;;5077113;28;20475;-17
2023/12/14 06:41:28;;;;;;;24.98;12.13;;;3.60;99.90;;;;;;5075952;28;20133;-17
2023/12/14 06:43:54;;;;;;;27.00;12.25;;;3.60;99.90;;;;;;5076191;28;20094;-17
2023/12/14 06:46:21;;;;;;;22.95;11.25;;;3.50;99.90;;;;;;5077121;28;20051;-17
2023/12/14 06:48:47;;;;;;;25.67;11.23;;;3.60;99.90;;;;;;5077874;28;20070;-18
2023/12/14 06:51:13;;;;;;;26.65;11.38;;;3.60;99.90;;;;;;5076964;28;20044;-17
2023/12/14 06:53:40;;;;;;;20.05;11.35;;;3.60;99.90;;;;;;5059014;28;20494;-17
2023/12/14 06:56:10;;;;;;;22.67;10.75;;;3.50;99.90;;;;;;5075637;28;20048;-17
2023/12/14 06:58:37;;;;;;;25.05;11.57;;;3.50;99.90;;;;;;5076041;28;20449;-17
2023/12/14 07:01:03;;;;;;;22.48;11.32;;;3.60;99.90;;;;;;5077308;28;20136;-18
2023/12/14 07:03:29;;;;;;;26.67;12.40;;;3.50;99.90;;;;;;5076106;28;20048;-17
2023/12/14 07:05:54;;;;;;;22.98;11.65;;;3.50;99.90;;;;;;5075702;28;20044;-17
2023/12/14 07:08:20;;;;;;;22.73;11.75;;;3.50;99.90;;;;;;5076900;28;20095;-17
2023/12/14 07:10:46;;;;;;;19.70;10.88;;;3.60;99.90;;;;;;5076609;28;20044;-17
2023/12/14 07:13:12;;;;;;;26.08;12.13;;;3.50;99.90;;;;;;5076557;28;20084;-17
2023/12/14 07:15:37;;;;;;;24.67;11.93;;;3.40;99.90;;;;;;5059449;28;20487;-17
2023/12/14 07:18:03;;;;;;;28.60;12.82;;;3.60;99.90;;;;;;5058336;28;20056;-17
2023/12/14 07:20:29;;;;;;;25.27;12.65;;;3.50;99.90;;;;;;5076301;28;20064;-17
2023/12/14 07:22:55;;;;;;;29.58;12.50;;;3.50;99.90;;;;;;5076396;28;20091;-17
2023/12/14 07:25:21;;;;;;;30.58;13.48;;;3.60;99.90;;;;;;5075007;28;20048;-17
2023/12/14 07:27:46;;;;;;;25.95;12.65;;;3.50;99.90;;;;;;5076309;28;20036;-17
2023/12/14 07:30:13;;;;;;;24.80;11.95;;;3.50;99.90;;;;;;5058600;28;20052;-17
2023/12/14 07:32:39;;;;;;;24.10;11.20;;;3.50;99.90;;;;;;5076750;28;20076;-17
2023/12/14 07:35:06;;;;;;;32.45;13.48;;;3.50;99.90;;;;;;5075018;28;20084;-17
2023/12/14 07:37:32;;;;;;;26.30;12.50;;;3.50;99.90;;;;;;5074549;28;20429;-17
2023/12/14 07:40:01;;;;;;;27.48;13.38;;;3.60;99.90;;;;;;5075934;28;20082;-17
2023/12/14 07:42:26;;;;;;;30.70;13.70;;;3.50;99.90;;;;;;5074811;28;20052;-17
2023/12/14 07:44:52;;;;;;;24.05;13.27;;;3.60;99.90;;;;;;5076018;28;20048;-17
2023/12/14 07:47:18;;;;;;;26.52;14.02;;;3.50;99.90;;;;;;5075931;28;20044;-17
2023/12/14 07:49:44;;;;;;;28.13;12.55;;;3.50;99.90;;;;;;5075930;28;20102;-17
2023/12/14 07:52:10;;;;;;;25.13;13.68;;;3.60;99.90;;;;;;5075881;28;20127;-17
2023/12/14 07:54:36;;;;;;;25.77;13.00;;;3.50;99.90;;;;;;5041526;28;20040;-17
2023/12/14 07:57:02;;;;;;;30.88;13.13;;;3.60;99.90;;;;;;5075729;28;20608;-17
2023/12/14 07:59:29;;;;;;;26.77;12.95;;;3.50;99.90;;;;;;5075597;28;20064;-17
2023/12/14 08:01:55;;;;;;;27.02;12.38;;;3.50;99.90;;;;;;5074562;28;20044;-17
2023/12/14 08:04:21;;;;;;;25.67;13.70;;;3.50;99.90;;;;;;5075478;28;20067;-17
2023/12/14 08:06:47;;;;;;;27.27;13.05;;;3.50;99.90;;;;;;5074538;28;20471;-17
2023/12/14 08:09:13;;;;;;;26.15;13.52;;;3.60;99.90;;;;;;5074228;28;20129;-17
2023/12/14 08:11:39;;;;;;;30.30;12.80;;;3.50;99.90;;;;;;5057861;28;20084;-17
2023/12/14 08:14:04;;;;;;;29.38;13.68;;;3.50;99.90;;;;;;5057498;28;20044;-17
2023/12/14 08:16:30;;;;;;;29.98;12.43;;;3.50;99.90;;;;;;5075265;28;20433;-17
2023/12/14 08:18:56;;;;;;;27.65;13.90;;;3.50;99.90;;;;;;5057157;28;20237;-17
2023/12/14 08:21:22;;;;;;;24.90;12.38;;;3.50;99.90;;;;;;5075146;28;20053;-17
2023/12/14 08:23:47;;;;;;;26.85;13.35;;;3.50;99.90;;;;;;5075160;28;20058;-17
2023/12/14 08:26:13;;;;;;;32.20;14.13;;;3.60;99.90;;;;;;5074098;28;20474;-17
2023/12/14 08:28:39;;;;;;;26.23;12.50;;;3.50;99.90;;;;;;5058020;28;20040;-18
2023/12/14 08:31:05;;;;;;;28.63;12.45;;;3.60;99.90;;;;;;5075073;28;20052;-17
2023/12/14 08:33:31;;;;;;;29.85;13.25;;;3.60;99.90;;;;;;5075273;28;20052;-17
2023/12/14 08:35:57;;;;;;;31.83;12.93;;;3.60;99.90;;;;;;5075427;28;20083;-17
2023/12/14 08:38:24;;;;;;;28.60;13.18;;;3.60;99.90;;;;;;5073477;28;20494;-17
2023/12/14 08:40:50;;;;;;;27.55;13.20;;;3.70;99.90;;;;;;5057260;28;20529;-17
2023/12/14 08:43:16;;;;;;;28.83;13.35;;;3.70;99.90;;;;;;5073850;28;20084;-18
2023/12/14 08:45:42;;;;;;;32.13;12.98;;;3.70;99.90;;;;;;5024445;28;20109;-17
2023/12/14 08:48:08;;;;;;;25.35;12.45;;;3.80;99.90;;;;;;5073664;28;20499;-17
2023/12/14 08:50:34;;;;;;;26.38;13.02;;;3.80;99.90;;;;;;5073971;28;20044;-17
2023/12/14 08:53:00;;;;;;;25.27;13.52;;;3.80;99.90;;;;;;5073826;28;20042;-17
2023/12/14 08:55:26;;;;;;;32.30;14.77;;;3.90;99.90;;;;;;5074123;28;20048;-17
2023/12/14 08:57:52;;;;;;;25.67;12.45;;;3.90;99.90;;;;;;5073768;28;20048;-17
2023/12/14 09:00:19;;;;;;;29.27;13.73;;;4.00;99.90;;;;;;5074522;28;20040;-18
2023/12/14 09:02:45;;;;;;;32.78;13.20;;;4.00;99.90;;;;;;5073366;28;20471;-17
2023/12/14 09:05:15;;;;;;;28.70;14.23;;;4.00;99.90;;;;;;5073128;28;20052;-17
2023/12/14 09:07:42;;;;;;;24.25;14.02;;;4.00;99.90;;;;;;5074836;28;20044;-17
2023/12/14 09:10:08;;;;;;;24.73;12.75;;;4.10;99.90;;;;;;5074257;28;20052;-17
2023/12/14 09:12:34;;;;;;;26.27;12.85;;;4.00;99.90;;;;;;5056659;28;20056;-18
2023/12/14 09:15:04;;;;;;;24.10;12.75;;;4.10;99.90;;;;;;5056818;28;20041;-17
2023/12/14 09:17:32;;;;;;;24.73;13.13;;;4.20;99.90;;;;;;5056531;28;20044;-17
2023/12/14 09:20:04;;;;;;;32.35;13.48;;;4.20;99.90;;;;;;5073215;28;20095;-17
2023/12/14 09:22:31;;;;;;;23.80;13.00;;;4.10;99.90;;;;;;5073563;28;20063;-17
2023/12/14 09:24:56;;;;;;;23.02;12.38;;;4.10;99.90;;;;;;5074724;28;20049;-17
2023/12/14 09:27:23;;;;;;;28.25;13.57;;;4.20;99.90;;;;;;5055895;28;20521;-18
2023/12/14 09:29:49;;;;;;;28.17;12.95;;;4.20;99.90;;;;;;5073866;28;20487;-18
2023/12/14 09:32:17;;;;;;;23.48;11.73;;;4.20;99.90;;;;;;5073015;28;20093;-17
2023/12/14 09:34:43;;;;;;;26.38;13.15;;;4.20;99.90;;;;;;5073915;28;20056;-17
2023/12/14 09:37:08;;;;;;;30.45;13.88;;;4.20;99.90;;;;;;5039420;28;20512;-17
2023/12/14 09:39:36;;;;;;;24.63;13.25;;;4.20;99.90;;;;;;5072908;28;20095;-17
2023/12/14 09:42:05;;;;;;;26.13;14.07;;;4.30;99.90;;;;;;5072689;28;20044;-17
2023/12/14 09:44:32;;;;;;;28.83;12.25;;;4.30;99.90;;;;;;5072903;28;20059;-17
2023/12/14 09:47:05;;;;;;;24.13;13.20;;;4.40;99.90;;;;;;5074094;28;20051;-18
2023/12/14 09:49:31;;;;;;;25.13;13.13;;;4.40;99.90;;;;;;5073701;28;20040;-17
2023/12/14 09:51:57;;;;;;;30.17;12.43;;;4.40;99.90;;;;;;5072411;28;20055;-17
2023/12/14 09:54:23;;;;;;;26.98;13.50;;;4.50;99.90;;;;;;5072370;28;20052;-17
2023/12/14 09:56:49;;;;;;;25.48;13.05;;;4.60;99.90;;;;;;5039207;28;20051;-18
2023/12/14 09:59:16;;;;;;;29.40;13.93;;;4.50;99.90;;;;;;5072330;28;20076;-17
2023/12/14 10:01:42;;;;;;;31.48;12.65;;;4.60;99.90;;;;;;5040284;28;20048;-18
2023/12/14 10:04:16;;;;;;;29.13;12.75;;;4.50;99.90;;;;;;5073504;28;20508;-17
2023/12/14 10:06:44;;;;;;;24.20;13.32;;;4.50;99.90;;;;;;5072637;28;20129;-17
2023/12/14 10:09:13;;;;;;;23.20;12.93;;;4.50;99.90;;;;;;5072263;28;20213;-17
2023/12/14 10:11:43;;;;;;;27.27;13.55;;;4.50;99.90;;;;;;5073511;28;20053;-17
2023/12/14 10:14:20;;;;;;;26.83;13.43;;;4.50;99.90;;;;;;5073436;28;20049;-17
2023/12/14 10:16:48;;;;;;;25.83;12.43;;;4.50;99.90;;;;;;5055710;28;20052;-17
2023/12/14 10:19:13;;;;;;;27.60;13.20;;;4.60;99.90;;;;;;5073567;28;20139;-18
2023/12/14 10:21:40;;;;;;;31.92;13.82;;;4.50;99.90;;;;;;5073400;28;20095;-17
2023/12/14 10:24:06;;;;;;;27.83;13.15;;;4.50;99.90;;;;;;5072862;28;20533;-17
2023/12/14 10:26:32;;;;;;;25.38;12.93;;;4.60;99.90;;;;;;5055407;28;20048;-17
2023/12/14 10:28:58;;;;;;;22.92;12.48;;;4.60;99.90;;;;;;5073157;28;20097;-18
2023/12/14 10:31:25;;;;;;;25.30;12.55;;;4.80;99.90;;;;;;5056034;28;20063;-17
2023/12/14 10:33:52;;;;;;;23.65;12.38;;;4.80;99.90;;;;;;5055560;28;20391;-17
2023/12/14 10:36:25;;;;;;;24.55;13.52;;;5.00;99.90;;;;;;5073695;28;20049;-17
2023/12/14 10:38:53;;;;;;;27.77;13.68;;;5.00;99.90;;;;;;5073952;28;20087;-17
2023/12/14 10:41:22;;;;;;;25.55;13.13;;;5.20;99.90;;;;;;5072969;28;20131;-18
2023/12/14 10:43:48;;;;;;;24.83;13.43;;;5.20;99.90;;;;;;5071787;28;20052;-17
2023/12/14 10:46:14;;;;;;;21.30;12.68;;;5.30;99.90;;;;;;5071975;28;20048;-18
2023/12/14 10:48:44;;;;;;;28.40;13.75;;;5.20;99.90;;;;;;5055343;28;20135;-17
2023/12/14 10:51:12;;;;;;;28.42;12.77;;;5.20;99.90;;;;;;5073008;28;20049;-18
2023/12/14 10:53:38;;;;;;;24.08;12.05;;;5.20;99.90;;;;;;5071482;28;20048;-17
2023/12/14 10:56:10;;;;;;;24.25;12.50;;;5.20;99.90;;;;;;5055976;28;20440;-18
2023/12/14 10:58:58;;;;;;;25.70;12.50;;;5.10;99.90;;;;;;5072944;28;20036;-17
2023/12/14 11:01:24;;;;;;;22.25;11.48;;;5.20;99.90;;;;;;5072268;28;20060;-17
2023/12/14 11:03:57;;;;;;;25.42;12.65;;;5.30;99.90;;;;;;5073025;28;20414;-17
2023/12/14 11:06:37;;;;;;;22.15;12.30;;;5.50;99.90;;;;;;5055332;28;20457;-18
2023/12/14 11:09:08;;;;;;;24.83;11.80;;;5.60;99.90;;;;;;5072000;28;20109;-17
2023/12/14 11:11:57;;;;;;;18.40;11.07;;;5.70;99.90;;;;;;5055094;28;20040;-17
2023/12/14 11:14:27;;;;;;;20.05;11.30;;;5.70;99.90;;;;;;5056024;28;20053;-17
2023/12/14 11:17:06;;;;;;;20.10;11.63;;;5.80;99.90;;;;;;5057975;28;20101;-17
2023/12/14 11:19:32;;;;;;;18.13;10.95;;;5.80;99.90;;;;;;5074664;28;20127;-18
2023/12/14 11:22:17;;;;;;;20.17;11.50;;;5.80;99.90;;;;;;5076319;28;20075;-18
2023/12/14 11:24:50;;;;;;;20.08;11.43;;;5.80;99.90;;;;;;5076221;28;20052;-17
2023/12/14 11:27:19;;;;;;;;;;;5.60;99.90;;;;;;5077263;28;20097;-17
2023/12/14 11:29:45;;;;;;;22.42;11.82;;;5.50;99.90;;;;;;5075167;28;19920;-17
2023/12/14 11:32:11;;;;;;;19.55;10.38;;;5.40;99.90;;;;;;5075811;28;20040;-18
2023/12/14 11:34:39;;;;;;;20.23;10.80;;;5.30;99.90;;;;;;5076724;28;20067;-18
2023/12/14 11:37:06;;;;;;;17.58;10.82;;;5.30;99.90;;;;;;5075682;28;20049;-17
2023/12/14 11:39:32;;;;;;;19.35;10.85;;;5.30;99.90;;;;;;5075561;28;20563;-17
2023/12/14 11:42:03;;;;;;;16.42;10.65;;;5.30;99.90;;;;;;5075967;28;20052;-18
2023/12/14 11:44:30;;;;;;;20.10;11.23;;;5.20;99.90;;;;;;5074698;28;20513;-17
2023/12/14 11:46:56;;;;;;;21.85;11.68;;;5.30;99.90;;;;;;5058229;28;20052;-17
2023/12/14 11:49:26;;;;;;;18.48;12.18;;;5.20;99.90;;;;;;5075383;28;20079;-17
2023/12/14 11:51:54;;;;;;;27.05;12.23;;;5.30;99.90;;;;;;5074626;28;20072;-18
2023/12/14 11:54:20;;;;;;;17.08;10.48;;;5.20;99.90;;;;;;5074515;28;20478;-18
2023/12/14 11:56:48;;;;;;;16.02;10.23;;;5.20;99.90;;;;;;5074496;28;20486;-17
2023/12/14 11:59:17;;;;;;;18.35;10.02;;;5.10;99.90;;;;;;5058470;28;20052;-17
2023/12/14 12:01:59;;;;;;;15.93;9.55;;;5.00;99.90;;;;;;5075591;28;20052;-17
2023/12/14 12:04:27;;;;;;;20.63;11.25;;;5.00;99.90;;;;;;5076091;28;20049;-17
2023/12/14 12:07:01;;;;;;;18.58;10.48;;;4.90;99.90;;;;;;5076033;28;20131;-17
2023/12/14 12:09:42;;;;;;;24.67;9.77;;;5.00;99.90;;;;;;5075434;28;20121;-17
2023/12/14 12:12:09;;;;;;;19.45;9.35;;;5.00;99.90;;;;;;5076361;28;20051;-17
2023/12/14 12:14:36;;;;;;;20.50;10.35;;;5.00;99.90;;;;;;5075818;28;20053;-18
2023/12/14 12:17:04;;;;;;;18.25;10.85;;;5.00;99.90;;;;;;5075661;28;20045;-17
2023/12/14 12:19:34;;;;;;;16.60;9.75;;;5.00;99.90;;;;;;5075163;28;20110;-17
2023/12/14 12:22:00;;;;;;;23.45;10.35;;;5.00;99.90;;;;;;5074181;28;20052;-17
2023/12/14 12:24:26;;;;;;;19.00;10.82;;;5.00;99.90;;;;;;5073916;28;20169;-17
2023/12/14 12:26:52;;;;;;;17.23;9.52;;;5.00;99.90;;;;;;5073129;28;20044;-18
2023/12/14 12:29:17;;;;;;;18.42;10.80;;;5.00;99.90;;;;;;5074888;28;20040;-18
2023/12/14 12:31:44;;;;;;;16.40;9.57;;;4.90;99.90;;;;;;5056915;28;20055;-17
2023/12/14 12:34:12;;;;;;;20.60;11.05;;;4.90;99.90;;;;;;5074707;28;20052;-17
2023/12/14 12:36:38;;;;;;;23.30;10.77;;;4.90;99.90;;;;;;5075480;28;20049;-17
2023/12/14 12:39:05;;;;;;;16.77;10.15;;;4.90;99.90;;;;;;5074532;28;20051;-18